sensor_id;sensor_type;location;lat;lon;timestamp;temperature;humidity
17632;DHT22;8934;51.194;17.150;2022-08-03T00:00:14;13.90;99.90
17632;DHT22;8934;51.194;17.150;2022-08-03T00:03:02;13.90;99.90
17632;DHT22;8934;51.194;17.150;2022-08-03T00:05:49;13.90;99.90
17632;DHT22;8934;51.194;17.150;2022-08-03T00:08:50;13.80;99.90
17632;DHT22;8934;51.194;17.150;2022-08-03T00:11:37;13.80;99.90
17632;DHT22;8934;51.194;17.150;2022-08-03T00:14:26;13.80;99.90
17632;DHT22;8934;51.194;17.150;2022-08-03T00:17:13;13.70;99.90
17632;DHT22;8934;51.194;17.150;2022-08-03T00:20:01;13.70;99.90
17632;DHT22;8934;51.194;17.150;2022-08-03T00:22:49;13.70;99.90
17632;DHT22;8934;51.194;17.150;2022-08-03T00:25:36;13.70;99.90
17632;DHT22;8934;51.194;17.150;2022-08-03T00:28:24;13.70;99.90
17632;DHT22;8934;51.194;17.150;2022-08-03T00:31:13;13.60;99.90
17632;DHT22;8934;51.194;17.150;2022-08-03T00:34:01;13.60;99.90
17632;DHT22;8934;51.194;17.150;2022-08-03T00:36:49;13.50;99.90
17632;DHT22;8934;51.194;17.150;2022-08-03T00:39:37;13.50;99.90
17632;DHT22;8934;51.194;17.150;2022-08-03T00:42:25;13.50;99.90
17632;DHT22;8934;51.194;17.150;2022-08-03T00:45:13;13.40;99.90
17632;DHT22;8934;51.194;17.150;2022-08-03T00:48:02;13.40;99.90
17632;DHT22;8934;51.194;17.150;2022-08-03T00:51:10;13.40;99.90
17632;DHT22;8934;51.194;17.150;2022-08-03T00:53:58;13.40;99.90
17632;DHT22;8934;51.194;17.150;2022-08-03T00:56:45;13.30;99.90
17632;DHT22;8934;51.194;17.150;2022-08-03T00:59:45;13.30;99.90
17632;DHT22;8934;51.194;17.150;2022-08-03T01:02:32;13.30;99.90
17632;DHT22;8934;51.194;17.150;2022-08-03T01:05:21;13.20;99.90
17632;DHT22;8934;51.194;17.150;2022-08-03T01:08:10;13.30;99.90
17632;DHT22;8934;51.194;17.150;2022-08-03T01:11:02;13.20;99.90
17632;DHT22;8934;51.194;17.150;2022-08-03T01:13:54;13.20;99.90
17632;DHT22;8934;51.194;17.150;2022-08-03T01:17:04;13.20;99.90
17632;DHT22;8934;51.194;17.150;2022-08-03T01:20:00;13.20;99.90
17632;DHT22;8934;51.194;17.150;2022-08-03T01:29:00;13.10;99.90
17632;DHT22;8934;51.194;17.150;2022-08-03T01:31:52;13.10;99.90
17632;DHT22;8934;51.194;17.150;2022-08-03T01:35:03;13.10;99.90
17632;DHT22;8934;51.194;17.150;2022-08-03T01:37:53;13.10;99.90
17632;DHT22;8934;51.194;17.150;2022-08-03T01:40:43;13.00;99.90
17632;DHT22;8934;51.194;17.150;2022-08-03T01:43:32;13.00;99.90
17632;DHT22;8934;51.194;17.150;2022-08-03T01:46:40;13.00;99.90
17632;DHT22;8934;51.194;17.150;2022-08-03T01:49:36;13.00;99.90
17632;DHT22;8934;51.194;17.150;2022-08-03T01:52:25;13.00;99.90
17632;DHT22;8934;51.194;17.150;2022-08-03T01:55:13;13.00;99.90
17632;DHT22;8934;51.194;17.150;2022-08-03T01:58:03;13.00;99.90
17632;DHT22;8934;51.194;17.150;2022-08-03T02:00:52;13.00;99.90
17632;DHT22;8934;51.194;17.150;2022-08-03T02:03:44;13.00;99.90
17632;DHT22;8934;51.194;17.150;2022-08-03T02:06:46;12.90;99.90
17632;DHT22;8934;51.194;17.150;2022-08-03T02:09:48;12.90;99.90
17632;DHT22;8934;51.194;17.150;2022-08-03T02:12:37;12.90;99.90
17632;DHT22;8934;51.194;17.150;2022-08-03T02:15:24;13.00;99.90
17632;DHT22;8934;51.194;17.150;2022-08-03T02:18:13;13.00;99.90
17632;DHT22;8934;51.194;17.150;2022-08-03T02:21:02;13.00;99.90
17632;DHT22;8934;51.194;17.150;2022-08-03T02:23:57;13.00;99.90
17632;DHT22;8934;51.194;17.150;2022-08-03T02:26:45;13.00;99.90
17632;DHT22;8934;51.194;17.150;2022-08-03T02:29:33;13.00;99.90
17632;DHT22;8934;51.194;17.150;2022-08-03T02:32:27;13.00;99.90
17632;DHT22;8934;51.194;17.150;2022-08-03T02:35:15;13.00;99.90
17632;DHT22;8934;51.194;17.150;2022-08-03T02:38:06;13.00;99.90
17632;DHT22;8934;51.194;17.150;2022-08-03T02:40:55;13.00;99.90
17632;DHT22;8934;51.194;17.150;2022-08-03T02:43:44;13.00;99.90
17632;DHT22;8934;51.194;17.150;2022-08-03T02:46:55;13.00;99.90
17632;DHT22;8934;51.194;17.150;2022-08-03T02:49:43;13.00;99.90
17632;DHT22;8934;51.194;17.150;2022-08-03T02:52:36;13.10;99.90
17632;DHT22;8934;51.194;17.150;2022-08-03T02:55:25;13.10;99.90
17632;DHT22;8934;51.194;17.150;2022-08-03T02:58:14;13.10;99.90
17632;DHT22;8934;51.194;17.150;2022-08-03T03:01:03;13.20;99.90
17632;DHT22;8934;51.194;17.150;2022-08-03T03:03:55;13.20;99.90
17632;DHT22;8934;51.194;17.150;2022-08-03T03:06:42;13.30;99.90
17632;DHT22;8934;51.194;17.150;2022-08-03T03:09:33;13.40;99.90
17632;DHT22;8934;51.194;17.150;2022-08-03T03:12:28;13.50;99.90
17632;DHT22;8934;51.194;17.150;2022-08-03T03:15:17;13.60;99.90
17632;DHT22;8934;51.194;17.150;2022-08-03T03:18:05;13.70;99.90
17632;DHT22;8934;51.194;17.150;2022-08-03T03:20:55;13.80;99.90
17632;DHT22;8934;51.194;17.150;2022-08-03T03:23:44;13.80;99.90
17632;DHT22;8934;51.194;17.150;2022-08-03T03:26:32;13.90;99.90
17632;DHT22;8934;51.194;17.150;2022-08-03T03:29:25;14.00;99.90
17632;DHT22;8934;51.194;17.150;2022-08-03T03:32:14;14.10;99.90
17632;DHT22;8934;51.194;17.150;2022-08-03T03:35:03;14.10;99.90
17632;DHT22;8934;51.194;17.150;2022-08-03T03:37:51;14.20;99.90
17632;DHT22;8934;51.194;17.150;2022-08-03T03:40:38;14.30;99.90
17632;DHT22;8934;51.194;17.150;2022-08-03T03:43:25;14.30;99.90
17632;DHT22;8934;51.194;17.150;2022-08-03T03:46:14;14.40;99.90
17632;DHT22;8934;51.194;17.150;2022-08-03T03:49:03;14.40;99.90
17632;DHT22;8934;51.194;17.150;2022-08-03T03:51:51;14.50;99.90
17632;DHT22;8934;51.194;17.150;2022-08-03T03:54:40;14.50;99.90
17632;DHT22;8934;51.194;17.150;2022-08-03T03:57:28;14.50;99.90
17632;DHT22;8934;51.194;17.150;2022-08-03T04:00:16;14.60;99.90
17632;DHT22;8934;51.194;17.150;2022-08-03T04:03:03;14.60;99.90
17632;DHT22;8934;51.194;17.150;2022-08-03T04:05:54;14.70;99.90
17632;DHT22;8934;51.194;17.150;2022-08-03T04:09:00;14.70;99.90
17632;DHT22;8934;51.194;17.150;2022-08-03T04:12:05;14.80;99.90
17632;DHT22;8934;51.194;17.150;2022-08-03T04:14:53;14.80;99.90
17632;DHT22;8934;51.194;17.150;2022-08-03T04:17:42;14.80;99.90
17632;DHT22;8934;51.194;17.150;2022-08-03T04:20:31;14.80;99.90
17632;DHT22;8934;51.194;17.150;2022-08-03T04:23:21;14.80;99.90
17632;DHT22;8934;51.194;17.150;2022-08-03T04:26:11;14.80;99.90
17632;DHT22;8934;51.194;17.150;2022-08-03T04:28:59;14.80;99.90
17632;DHT22;8934;51.194;17.150;2022-08-03T04:31:47;14.80;99.90
17632;DHT22;8934;51.194;17.150;2022-08-03T04:34:35;14.90;99.90
17632;DHT22;8934;51.194;17.150;2022-08-03T04:37:23;14.90;99.90
17632;DHT22;8934;51.194;17.150;2022-08-03T04:40:14;14.90;99.90
17632;DHT22;8934;51.194;17.150;2022-08-03T04:43:08;15.00;99.90
17632;DHT22;8934;51.194;17.150;2022-08-03T04:45:56;15.10;99.90
17632;DHT22;8934;51.194;17.150;2022-08-03T04:48:44;15.10;99.90
17632;DHT22;8934;51.194;17.150;2022-08-03T04:51:32;15.10;99.90
17632;DHT22;8934;51.194;17.150;2022-08-03T04:54:23;15.10;99.90
17632;DHT22;8934;51.194;17.150;2022-08-03T04:57:12;15.10;99.90
17632;DHT22;8934;51.194;17.150;2022-08-03T05:00:08;15.10;99.90
17632;DHT22;8934;51.194;17.150;2022-08-03T05:02:56;15.20;99.90
17632;DHT22;8934;51.194;17.150;2022-08-03T05:05:43;15.20;99.90
17632;DHT22;8934;51.194;17.150;2022-08-03T05:08:35;15.30;99.90
17632;DHT22;8934;51.194;17.150;2022-08-03T05:11:31;15.40;99.90
17632;DHT22;8934;51.194;17.150;2022-08-03T05:14:23;15.50;99.90
17632;DHT22;8934;51.194;17.150;2022-08-03T05:17:13;15.60;99.90
17632;DHT22;8934;51.194;17.150;2022-08-03T05:20:00;15.80;99.90
17632;DHT22;8934;51.194;17.150;2022-08-03T05:22:49;15.80;99.90
17632;DHT22;8934;51.194;17.150;2022-08-03T05:25:36;15.90;99.90
17632;DHT22;8934;51.194;17.150;2022-08-03T05:28:24;16.00;99.90
17632;DHT22;8934;51.194;17.150;2022-08-03T05:31:13;16.10;99.90
17632;DHT22;8934;51.194;17.150;2022-08-03T05:34:00;16.30;99.90
17632;DHT22;8934;51.194;17.150;2022-08-03T05:36:48;16.50;99.90
17632;DHT22;8934;51.194;17.150;2022-08-03T05:39:35;16.70;99.90
17632;DHT22;8934;51.194;17.150;2022-08-03T05:42:23;16.90;99.90
17632;DHT22;8934;51.194;17.150;2022-08-03T05:45:10;17.00;99.90
17632;DHT22;8934;51.194;17.150;2022-08-03T05:48:04;17.20;99.90
17632;DHT22;8934;51.194;17.150;2022-08-03T05:50:52;17.30;99.90
17632;DHT22;8934;51.194;17.150;2022-08-03T05:53:39;17.50;99.90
17632;DHT22;8934;51.194;17.150;2022-08-03T05:56:28;17.60;99.90
17632;DHT22;8934;51.194;17.150;2022-08-03T05:59:15;17.70;99.90
17632;DHT22;8934;51.194;17.150;2022-08-03T06:02:22;17.80;99.90
17632;DHT22;8934;51.194;17.150;2022-08-03T06:05:14;18.00;99.90
17632;DHT22;8934;51.194;17.150;2022-08-03T06:08:01;18.10;99.90
17632;DHT22;8934;51.194;17.150;2022-08-03T06:10:49;18.20;99.90
17632;DHT22;8934;51.194;17.150;2022-08-03T06:13:37;18.40;99.90
17632;DHT22;8934;51.194;17.150;2022-08-03T06:16:24;18.60;99.90
17632;DHT22;8934;51.194;17.150;2022-08-03T06:19:12;18.80;99.90
17632;DHT22;8934;51.194;17.150;2022-08-03T06:22:01;19.10;99.90
17632;DHT22;8934;51.194;17.150;2022-08-03T06:24:49;19.30;99.90
17632;DHT22;8934;51.194;17.150;2022-08-03T06:27:38;19.50;99.90
17632;DHT22;8934;51.194;17.150;2022-08-03T06:30:26;19.60;99.90
17632;DHT22;8934;51.194;17.150;2022-08-03T06:33:13;19.80;99.90
17632;DHT22;8934;51.194;17.150;2022-08-03T06:36:01;19.90;99.90
17632;DHT22;8934;51.194;17.150;2022-08-03T06:38:50;20.10;99.90
17632;DHT22;8934;51.194;17.150;2022-08-03T06:41:37;20.30;99.90
17632;DHT22;8934;51.194;17.150;2022-08-03T06:44:30;20.50;99.90
17632;DHT22;8934;51.194;17.150;2022-08-03T06:47:17;20.70;99.90
17632;DHT22;8934;51.194;17.150;2022-08-03T06:50:05;20.90;99.90
17632;DHT22;8934;51.194;17.150;2022-08-03T06:53:03;21.10;99.90
17632;DHT22;8934;51.194;17.150;2022-08-03T06:55:52;21.30;99.90
17632;DHT22;8934;51.194;17.150;2022-08-03T06:58:40;21.50;99.90
17632;DHT22;8934;51.194;17.150;2022-08-03T07:01:28;21.80;99.90
17632;DHT22;8934;51.194;17.150;2022-08-03T07:04:15;22.00;99.90
17632;DHT22;8934;51.194;17.150;2022-08-03T07:07:03;22.20;99.90
17632;DHT22;8934;51.194;17.150;2022-08-03T07:09:55;22.40;99.90
17632;DHT22;8934;51.194;17.150;2022-08-03T07:12:44;22.60;99.90
17632;DHT22;8934;51.194;17.150;2022-08-03T07:15:41;22.80;99.90
17632;DHT22;8934;51.194;17.150;2022-08-03T07:18:41;23.00;99.90
17632;DHT22;8934;51.194;17.150;2022-08-03T07:21:28;23.20;99.90
17632;DHT22;8934;51.194;17.150;2022-08-03T07:24:15;23.40;99.90
17632;DHT22;8934;51.194;17.150;2022-08-03T07:27:03;23.50;99.90
17632;DHT22;8934;51.194;17.150;2022-08-03T07:29:51;23.70;99.90
17632;DHT22;8934;51.194;17.150;2022-08-03T07:32:40;23.90;99.90
17632;DHT22;8934;51.194;17.150;2022-08-03T07:35:35;24.10;99.90
17632;DHT22;8934;51.194;17.150;2022-08-03T07:38:23;24.20;99.90
17632;DHT22;8934;51.194;17.150;2022-08-03T07:41:10;24.40;99.90
17632;DHT22;8934;51.194;17.150;2022-08-03T07:43:58;24.60;99.90
17632;DHT22;8934;51.194;17.150;2022-08-03T07:46:47;24.80;99.90
17632;DHT22;8934;51.194;17.150;2022-08-03T07:49:40;24.90;99.90
17632;DHT22;8934;51.194;17.150;2022-08-03T07:52:28;25.10;99.90
17632;DHT22;8934;51.194;17.150;2022-08-03T07:55:35;25.30;99.90
17632;DHT22;8934;51.194;17.150;2022-08-03T07:58:22;25.50;99.90
17632;DHT22;8934;51.194;17.150;2022-08-03T08:01:10;25.70;99.90
17632;DHT22;8934;51.194;17.150;2022-08-03T08:04:01;25.90;99.90
17632;DHT22;8934;51.194;17.150;2022-08-03T08:06:48;26.10;99.90
17632;DHT22;8934;51.194;17.150;2022-08-03T08:09:36;26.30;99.90
17632;DHT22;8934;51.194;17.150;2022-08-03T08:12:23;26.40;99.90
17632;DHT22;8934;51.194;17.150;2022-08-03T08:15:11;26.60;99.90
17632;DHT22;8934;51.194;17.150;2022-08-03T08:17:59;26.80;99.90
17632;DHT22;8934;51.194;17.150;2022-08-03T08:20:49;27.00;99.90
17632;DHT22;8934;51.194;17.150;2022-08-03T08:23:42;27.10;99.90
17632;DHT22;8934;51.194;17.150;2022-08-03T08:26:42;27.20;99.90
17632;DHT22;8934;51.194;17.150;2022-08-03T08:29:30;27.40;99.90
17632;DHT22;8934;51.194;17.150;2022-08-03T08:32:17;27.60;99.90
17632;DHT22;8934;51.194;17.150;2022-08-03T08:35:05;27.80;99.90
17632;DHT22;8934;51.194;17.150;2022-08-03T08:37:55;28.00;99.90
17632;DHT22;8934;51.194;17.150;2022-08-03T08:40:44;28.10;99.90
17632;DHT22;8934;51.194;17.150;2022-08-03T08:43:31;28.40;99.90
17632;DHT22;8934;51.194;17.150;2022-08-03T08:46:20;28.50;99.90
17632;DHT22;8934;51.194;17.150;2022-08-03T08:49:09;28.50;99.90
17632;DHT22;8934;51.194;17.150;2022-08-03T08:51:57;28.50;99.90
17632;DHT22;8934;51.194;17.150;2022-08-03T08:54:48;28.60;99.90
17632;DHT22;8934;51.194;17.150;2022-08-03T08:57:37;28.70;99.90
17632;DHT22;8934;51.194;17.150;2022-08-03T09:00:28;28.90;99.90
17632;DHT22;8934;51.194;17.150;2022-08-03T09:03:16;29.00;99.90
17632;DHT22;8934;51.194;17.150;2022-08-03T09:06:15;29.10;99.90
17632;DHT22;8934;51.194;17.150;2022-08-03T09:09:02;29.10;99.90
17632;DHT22;8934;51.194;17.150;2022-08-03T09:11:53;29.20;99.90
17632;DHT22;8934;51.194;17.150;2022-08-03T09:15:14;29.30;99.90
17632;DHT22;8934;51.194;17.150;2022-08-03T09:18:02;29.50;99.90
17632;DHT22;8934;51.194;17.150;2022-08-03T09:20:52;29.80;99.90
17632;DHT22;8934;51.194;17.150;2022-08-03T09:24:16;30.00;99.90
17632;DHT22;8934;51.194;17.150;2022-08-03T09:27:28;30.30;99.90
17632;DHT22;8934;51.194;17.150;2022-08-03T09:30:16;30.20;99.90
17632;DHT22;8934;51.194;17.150;2022-08-03T09:33:20;30.30;99.90
17632;DHT22;8934;51.194;17.150;2022-08-03T09:36:09;30.40;99.90
17632;DHT22;8934;51.194;17.150;2022-08-03T09:39:00;30.60;99.90
17632;DHT22;8934;51.194;17.150;2022-08-03T09:42:02;30.70;99.90
17632;DHT22;8934;51.194;17.150;2022-08-03T09:44:52;30.70;99.90
17632;DHT22;8934;51.194;17.150;2022-08-03T09:47:42;30.70;99.90
17632;DHT22;8934;51.194;17.150;2022-08-03T09:50:30;30.90;99.90
17632;DHT22;8934;51.194;17.150;2022-08-03T09:53:53;31.00;99.90
17632;DHT22;8934;51.194;17.150;2022-08-03T09:56:45;31.10;99.90
17632;DHT22;8934;51.194;17.150;2022-08-03T09:59:34;31.30;99.90
17632;DHT22;8934;51.194;17.150;2022-08-03T10:02:27;31.60;99.90
17632;DHT22;8934;51.194;17.150;2022-08-03T10:05:14;31.80;99.90
17632;DHT22;8934;51.194;17.150;2022-08-03T10:08:09;32.20;98.50
17632;DHT22;8934;51.194;17.150;2022-08-03T10:11:00;32.20;97.50
17632;DHT22;8934;51.194;17.150;2022-08-03T10:13:47;32.20;97.30
17632;DHT22;8934;51.194;17.150;2022-08-03T10:16:43;32.20;97.10
17632;DHT22;8934;51.194;17.150;2022-08-03T10:19:33;32.30;96.70
17632;DHT22;8934;51.194;17.150;2022-08-03T10:22:21;32.50;96.50
17632;DHT22;8934;51.194;17.150;2022-08-03T10:25:10;32.50;95.50
17632;DHT22;8934;51.194;17.150;2022-08-03T10:27:58;32.50;95.00
17632;DHT22;8934;51.194;17.150;2022-08-03T10:30:50;32.70;95.70
17632;DHT22;8934;51.194;17.150;2022-08-03T10:33:40;32.90;94.50
17632;DHT22;8934;51.194;17.150;2022-08-03T10:36:38;32.80;92.40
17632;DHT22;8934;51.194;17.150;2022-08-03T10:42:14;33.30;92.10
17632;DHT22;8934;51.194;17.150;2022-08-03T10:45:03;33.30;93.40
17632;DHT22;8934;51.194;17.150;2022-08-03T10:47:51;33.50;91.30
17632;DHT22;8934;51.194;17.150;2022-08-03T10:50:39;33.70;91.50
17632;DHT22;8934;51.194;17.150;2022-08-03T10:53:37;33.70;92.50
17632;DHT22;8934;51.194;17.150;2022-08-03T10:56:38;33.70;91.10
17632;DHT22;8934;51.194;17.150;2022-08-03T10:59:57;34.00;90.00
17632;DHT22;8934;51.194;17.150;2022-08-03T11:03:05;33.80;87.00
17632;DHT22;8934;51.194;17.150;2022-08-03T11:05:55;33.70;91.80
17632;DHT22;8934;51.194;17.150;2022-08-03T11:09:14;33.70;87.30
17632;DHT22;8934;51.194;17.150;2022-08-03T11:12:03;34.10;90.00
17632;DHT22;8934;51.194;17.150;2022-08-03T11:15:15;34.40;90.10
17632;DHT22;8934;51.194;17.150;2022-08-03T11:18:18;34.50;86.80
17632;DHT22;8934;51.194;17.150;2022-08-03T11:21:11;34.50;89.00
17632;DHT22;8934;51.194;17.150;2022-08-03T11:23:59;34.40;87.20
17632;DHT22;8934;51.194;17.150;2022-08-03T11:27:01;34.00;88.00
17632;DHT22;8934;51.194;17.150;2022-08-03T11:30:04;33.60;88.70
17632;DHT22;8934;51.194;17.150;2022-08-03T11:32:53;33.10;89.80
17632;DHT22;8934;51.194;17.150;2022-08-03T11:35:56;33.00;90.60
17632;DHT22;8934;51.194;17.150;2022-08-03T11:41:46;33.60;91.40
17632;DHT22;8934;51.194;17.150;2022-08-03T11:44:41;34.20;90.10
17632;DHT22;8934;51.194;17.150;2022-08-03T11:47:35;34.60;84.70
17632;DHT22;8934;51.194;17.150;2022-08-03T11:50:36;34.70;81.00
17632;DHT22;8934;51.194;17.150;2022-08-03T11:53:24;35.00;83.20
17632;DHT22;8934;51.194;17.150;2022-08-03T11:56:12;35.40;85.00
17632;DHT22;8934;51.194;17.150;2022-08-03T11:58:59;36.10;80.50
17632;DHT22;8934;51.194;17.150;2022-08-03T12:02:07;36.50;80.10
17632;DHT22;8934;51.194;17.150;2022-08-03T12:04:55;36.60;80.20
17632;DHT22;8934;51.194;17.150;2022-08-03T12:07:44;36.50;76.10
17632;DHT22;8934;51.194;17.150;2022-08-03T12:10:51;36.40;72.80
17632;DHT22;8934;51.194;17.150;2022-08-03T12:13:48;36.30;73.40
17632;DHT22;8934;51.194;17.150;2022-08-03T12:16:56;36.40;73.40
17632;DHT22;8934;51.194;17.150;2022-08-03T12:19:45;36.20;77.80
17632;DHT22;8934;51.194;17.150;2022-08-03T12:22:32;36.30;81.60
17632;DHT22;8934;51.194;17.150;2022-08-03T12:25:21;36.30;73.50
17632;DHT22;8934;51.194;17.150;2022-08-03T12:28:24;36.00;78.00
17632;DHT22;8934;51.194;17.150;2022-08-03T12:31:23;36.00;79.20
17632;DHT22;8934;51.194;17.150;2022-08-03T12:34:10;36.20;79.40
17632;DHT22;8934;51.194;17.150;2022-08-03T12:37:03;36.50;77.30
17632;DHT22;8934;51.194;17.150;2022-08-03T12:40:10;36.60;77.40
17632;DHT22;8934;51.194;17.150;2022-08-03T12:43:10;36.50;81.90
17632;DHT22;8934;51.194;17.150;2022-08-03T12:49:09;35.70;70.60
17632;DHT22;8934;51.194;17.150;2022-08-03T12:52:00;35.50;72.20
17632;DHT22;8934;51.194;17.150;2022-08-03T12:54:55;35.60;80.90
17632;DHT22;8934;51.194;17.150;2022-08-03T12:57:42;35.90;74.00
17632;DHT22;8934;51.194;17.150;2022-08-03T13:00:30;36.20;73.30
17632;DHT22;8934;51.194;17.150;2022-08-03T13:03:18;36.80;73.50
17632;DHT22;8934;51.194;17.150;2022-08-03T13:06:25;37.20;76.40
17632;DHT22;8934;51.194;17.150;2022-08-03T13:09:14;37.40;74.70
17632;DHT22;8934;51.194;17.150;2022-08-03T13:12:06;36.90;73.40
17632;DHT22;8934;51.194;17.150;2022-08-03T13:14:56;37.00;74.40
17632;DHT22;8934;51.194;17.150;2022-08-03T13:17:44;37.10;71.90
17632;DHT22;8934;51.194;17.150;2022-08-03T13:20:32;37.00;71.20
17632;DHT22;8934;51.194;17.150;2022-08-03T13:23:20;36.90;72.00
17632;DHT22;8934;51.194;17.150;2022-08-03T13:26:09;37.10;74.80
17632;DHT22;8934;51.194;17.150;2022-08-03T13:28:56;36.90;72.30
17632;DHT22;8934;51.194;17.150;2022-08-03T13:31:44;36.60;69.90
17632;DHT22;8934;51.194;17.150;2022-08-03T13:34:36;36.30;73.40
17632;DHT22;8934;51.194;17.150;2022-08-03T13:37:24;36.00;76.80
17632;DHT22;8934;51.194;17.150;2022-08-03T13:40:13;36.30;74.40
17632;DHT22;8934;51.194;17.150;2022-08-03T13:43:02;36.80;75.90
17632;DHT22;8934;51.194;17.150;2022-08-03T13:45:49;37.00;73.50
17632;DHT22;8934;51.194;17.150;2022-08-03T13:48:42;37.10;73.10
17632;DHT22;8934;51.194;17.150;2022-08-03T13:51:30;37.20;72.00
17632;DHT22;8934;51.194;17.150;2022-08-03T13:54:18;37.00;74.40
17632;DHT22;8934;51.194;17.150;2022-08-03T13:57:06;36.90;74.40
17632;DHT22;8934;51.194;17.150;2022-08-03T14:00:15;36.80;71.30
17632;DHT22;8934;51.194;17.150;2022-08-03T14:03:14;36.80;70.60
17632;DHT22;8934;51.194;17.150;2022-08-03T14:06:01;37.00;71.90
17632;DHT22;8934;51.194;17.150;2022-08-03T14:08:49;36.60;69.40
17632;DHT22;8934;51.194;17.150;2022-08-03T14:11:36;36.70;73.60
17632;DHT22;8934;51.194;17.150;2022-08-03T14:14:44;36.60;72.40
17632;DHT22;8934;51.194;17.150;2022-08-03T14:17:33;36.60;73.60
17632;DHT22;8934;51.194;17.150;2022-08-03T14:20:35;36.70;66.00
17632;DHT22;8934;51.194;17.150;2022-08-03T14:23:35;36.80;69.20
17632;DHT22;8934;51.194;17.150;2022-08-03T14:26:23;37.20;70.60
17632;DHT22;8934;51.194;17.150;2022-08-03T14:29:11;37.40;70.30
17632;DHT22;8934;51.194;17.150;2022-08-03T14:31:59;37.30;69.80
17632;DHT22;8934;51.194;17.150;2022-08-03T14:34:59;37.00;73.00
17632;DHT22;8934;51.194;17.150;2022-08-03T14:37:46;36.70;69.90
17632;DHT22;8934;51.194;17.150;2022-08-03T14:40:34;36.90;69.20
17632;DHT22;8934;51.194;17.150;2022-08-03T14:43:21;37.20;70.40
17632;DHT22;8934;51.194;17.150;2022-08-03T14:46:09;37.50;68.10
17632;DHT22;8934;51.194;17.150;2022-08-03T14:48:57;37.90;71.90
17632;DHT22;8934;51.194;17.150;2022-08-03T14:52:06;37.90;69.20
17632;DHT22;8934;51.194;17.150;2022-08-03T14:54:54;37.90;65.60
17632;DHT22;8934;51.194;17.150;2022-08-03T14:57:42;38.00;68.80
17632;DHT22;8934;51.194;17.150;2022-08-03T15:00:30;38.20;67.80
17632;DHT22;8934;51.194;17.150;2022-08-03T15:03:18;38.10;70.30
17632;DHT22;8934;51.194;17.150;2022-08-03T15:06:08;38.10;66.40
17632;DHT22;8934;51.194;17.150;2022-08-03T15:08:57;38.00;66.40
17632;DHT22;8934;51.194;17.150;2022-08-03T15:12:05;38.20;68.40
17632;DHT22;8934;51.194;17.150;2022-08-03T15:14:52;38.10;67.80
17632;DHT22;8934;51.194;17.150;2022-08-03T15:17:40;38.30;66.80
17632;DHT22;8934;51.194;17.150;2022-08-03T15:20:45;38.30;65.20
17632;DHT22;8934;51.194;17.150;2022-08-03T15:23:35;38.40;66.40
17632;DHT22;8934;51.194;17.150;2022-08-03T15:26:23;38.50;65.50
17632;DHT22;8934;51.194;17.150;2022-08-03T15:29:19;38.40;65.50
17632;DHT22;8934;51.194;17.150;2022-08-03T15:32:28;38.60;63.80
17632;DHT22;8934;51.194;17.150;2022-08-03T15:35:15;38.70;62.90
17632;DHT22;8934;51.194;17.150;2022-08-03T15:38:02;38.90;63.20
17632;DHT22;8934;51.194;17.150;2022-08-03T15:40:54;39.10;62.10
17632;DHT22;8934;51.194;17.150;2022-08-03T15:43:45;38.80;61.90
17632;DHT22;8934;51.194;17.150;2022-08-03T15:46:33;38.60;64.00
17632;DHT22;8934;51.194;17.150;2022-08-03T15:49:20;38.90;65.90
17632;DHT22;8934;51.194;17.150;2022-08-03T15:52:07;39.00;65.10
17632;DHT22;8934;51.194;17.150;2022-08-03T15:54:55;38.50;64.70
17632;DHT22;8934;51.194;17.150;2022-08-03T15:57:43;38.40;62.40
17632;DHT22;8934;51.194;17.150;2022-08-03T16:00:52;38.10;65.30
17632;DHT22;8934;51.194;17.150;2022-08-03T16:03:39;38.00;64.50
17632;DHT22;8934;51.194;17.150;2022-08-03T16:06:27;38.30;68.20
17632;DHT22;8934;51.194;17.150;2022-08-03T16:09:20;38.40;66.80
17632;DHT22;8934;51.194;17.150;2022-08-03T16:12:28;38.10;68.70
17632;DHT22;8934;51.194;17.150;2022-08-03T16:15:15;38.20;65.80
17632;DHT22;8934;51.194;17.150;2022-08-03T16:18:04;38.50;67.10
17632;DHT22;8934;51.194;17.150;2022-08-03T16:20:52;38.70;65.90
17632;DHT22;8934;51.194;17.150;2022-08-03T16:23:41;38.30;63.50
17632;DHT22;8934;51.194;17.150;2022-08-03T16:26:32;38.40;64.40
17632;DHT22;8934;51.194;17.150;2022-08-03T16:29:19;38.40;64.50
17632;DHT22;8934;51.194;17.150;2022-08-03T16:32:09;38.30;64.60
17632;DHT22;8934;51.194;17.150;2022-08-03T16:34:58;38.00;68.30
17632;DHT22;8934;51.194;17.150;2022-08-03T16:37:45;37.80;65.10
17632;DHT22;8934;51.194;17.150;2022-08-03T16:40:41;37.80;66.30
17632;DHT22;8934;51.194;17.150;2022-08-03T16:43:29;37.90;65.70
17632;DHT22;8934;51.194;17.150;2022-08-03T16:46:19;38.00;65.60
17632;DHT22;8934;51.194;17.150;2022-08-03T16:49:08;38.10;65.40
17632;DHT22;8934;51.194;17.150;2022-08-03T16:51:56;37.90;66.20
17632;DHT22;8934;51.194;17.150;2022-08-03T16:54:46;37.90;68.40
17632;DHT22;8934;51.194;17.150;2022-08-03T16:57:38;37.90;67.80
17632;DHT22;8934;51.194;17.150;2022-08-03T17:00:45;37.50;66.10
17632;DHT22;8934;51.194;17.150;2022-08-03T17:03:36;37.10;70.10
17632;DHT22;8934;51.194;17.150;2022-08-03T17:06:44;37.00;71.20
17632;DHT22;8934;51.194;17.150;2022-08-03T17:09:33;37.00;71.70
17632;DHT22;8934;51.194;17.150;2022-08-03T17:12:24;37.00;70.70
17632;DHT22;8934;51.194;17.150;2022-08-03T17:15:12;36.80;71.00
17632;DHT22;8934;51.194;17.150;2022-08-03T17:18:00;36.80;70.50
17632;DHT22;8934;51.194;17.150;2022-08-03T17:20:49;36.90;73.10
17632;DHT22;8934;51.194;17.150;2022-08-03T17:23:40;36.80;72.60
17632;DHT22;8934;51.194;17.150;2022-08-03T17:26:33;36.70;72.60
17632;DHT22;8934;51.194;17.150;2022-08-03T17:29:28;36.50;70.90
17632;DHT22;8934;51.194;17.150;2022-08-03T17:32:21;36.10;72.50
17632;DHT22;8934;51.194;17.150;2022-08-03T17:35:09;35.60;72.60
17632;DHT22;8934;51.194;17.150;2022-08-03T17:37:57;34.60;74.00
17632;DHT22;8934;51.194;17.150;2022-08-03T17:40:50;33.60;76.90
17632;DHT22;8934;51.194;17.150;2022-08-03T17:43:42;32.70;79.40
17632;DHT22;8934;51.194;17.150;2022-08-03T17:46:50;32.10;81.00
17632;DHT22;8934;51.194;17.150;2022-08-03T17:49:38;31.80;81.80
17632;DHT22;8934;51.194;17.150;2022-08-03T17:52:27;31.40;83.30
17632;DHT22;8934;51.194;17.150;2022-08-03T17:55:19;30.90;84.40
17632;DHT22;8934;51.194;17.150;2022-08-03T17:58:31;30.40;86.10
17632;DHT22;8934;51.194;17.150;2022-08-03T18:01:28;29.70;88.10
17632;DHT22;8934;51.194;17.150;2022-08-03T18:04:54;29.00;89.30
17632;DHT22;8934;51.194;17.150;2022-08-03T18:07:46;28.40;90.50
17632;DHT22;8934;51.194;17.150;2022-08-03T18:10:47;27.80;91.20
17632;DHT22;8934;51.194;17.150;2022-08-03T18:13:37;27.30;91.90
17632;DHT22;8934;51.194;17.150;2022-08-03T18:16:32;26.90;92.70
17632;DHT22;8934;51.194;17.150;2022-08-03T18:19:23;26.50;93.50